Friday, December 14, 2018, 12:04 PM EST
Back to Local

KLGA, New York La Guardia Airport

Location: Astoria, NY, United States Lat: 40.783
Local Time: 12:04 PM EST (17:04 GMT) Lon: -73.883
Time Zone: US/Eastern Elev: 22 ft

Show me the last for .
Show Decoded

2018-12-14 11:51 METAR KLGA 141651Z 04009KT 10SM BKN022 OVC030 07/03 A3041 RMK AO2 SLP295
                 T00670033 =
2018-12-14 11:28 METAR KLGA 141628Z 05010KT 10SM BKN022 BKN030 OVC200 07/04 A3042 RMK AO2
                 T00720039 =
2018-12-14 10:51 METAR KLGA 141551Z 06008KT 10SM FEW027 OVC035 07/03 A3045 RMK AO2 SLP312
                 T00720033 =
2018-12-14 09:51 METAR KLGA 141451Z 09007KT 050V170 10SM OVC033 09/04 A3049 RMK AO2 SLP325
                 T00940039 51007 $ =
2018-12-14 08:51 METAR KLGA 141351Z 08007KT 060V120 10SM BKN033 OVC060 08/04 A3049 RMK AO2 SLP323
                 T00780039 $ =
2018-12-14 07:51 METAR KLGA 141251Z 10007KT 10SM OVC034 06/03 A3048 RMK AO2 SLP320 T00610028 $ =
2018-12-14 06:51 METAR KLGA 141151Z 09005KT 10SM FEW017 OVC035 06/03 A3047 RMK AO2 SLP317 70007
                 T00560028 10056 20044 55001 $ =
2018-12-14 06:05 METAR KLGA 141105Z 06008KT 10SM SCT018 OVC035 06/03 A3046 RMK AO2 T00560028 $ =
2018-12-14 05:51 METAR KLGA 141051Z 06007KT 10SM OVC018 06/03 A3045 RMK AO2 SLP312 T00560028 $ =
2018-12-14 04:51 METAR KLGA 140951Z 05008KT 10SM BKN018 BKN027 OVC033 05/03 A3046 RMK AO2 SLP313
                 T00500033 $ =
2018-12-14 03:51 METAR KLGA 140851Z 05007KT 10SM BKN021 OVC030 05/03 A3047 RMK AO2 SLP318
                 T00500033 57001 $ =
2018-12-14 02:51 METAR KLGA 140751Z 05008KT 10SM OVC016 05/03 A3047 RMK AO2 SLP319 T00500028 $ =
2018-12-14 01:51 METAR KLGA 140651Z 05010KT 10SM BKN016 OVC022 04/02 A3047 RMK AO2 SLP318
                 T00440022 $ =
2018-12-14 01:46 METAR KLGA 140646Z 06010KT 10SM BKN016 OVC022 04/02 A3047 RMK AO2 $ =
2018-12-14 00:51 METAR KLGA 140551Z 05010KT 10SM OVC014 04/03 A3047 RMK AO2 SLP319 60000
                 T00440028 10056 20039 58003 $ =
2018-12-14 00:35 METAR KLGA 140535Z 05011KT 10SM OVC014 04/03 A3047 RMK AO2 T00440028 $ =
2018-12-14 00:08 METAR KLGA 140508Z 05014KT 10SM BKN016 OVC033 04/02 A3048 RMK AO2 T00440022 $ =
2018-12-13 23:51 METAR KLGA 140451Z 06015KT 10SM BKN014 OVC033 04/02 A3048 RMK AO2 SLP321
                 T00440022 400560006 $ =
2018-12-13 22:51 METAR KLGA 140351Z 04009KT 10SM OVC012 04/03 A3049 RMK AO2 RAB00E15 SLP324 P0000
                 T00440028 $ =
2018-12-13 21:51 METAR KLGA 140251Z 04009KT 10SM FEW008 OVC012 06/03 A3048 RMK AO2 SLP321
                 T00560028 51007 $ =
2018-12-13 20:51 METAR KLGA 140151Z 04008KT 10SM FEW008 OVC014 05/03 A3047 RMK AO2 SLP319
                 T00500028 $ =
2018-12-13 19:51 METAR KLGA 140051Z 04012KT 10SM FEW008 BKN014 OVC020 05/03 A3048 RMK AO2 SLP320
                 T00500028 $ =
2018-12-13 19:24 METAR KLGA 140024Z 04015KT 10SM SCT008 OVC014 05/02 A3047 RMK AO2 T00500022 $ =
2018-12-13 18:51 METAR KLGA 132351Z 05012KT 10SM OVC011 04/02 A3046 RMK AO2 RAB38E48 SLP314
                 931000 P0000 60006 T00440022 10050 20028 53003 $ =
2018-12-13 18:48 METAR KLGA 132348Z 04013KT 10SM OVC011 04/02 A3046 RMK AO2 RAB38E48 P0000 $ =
2018-12-13 18:00 METAR KLGA 132300Z 05013KT 10SM SCT008 OVC015 04/02 A3045 RMK AO2 T00440022 $ =
2018-12-13 17:51 METAR KLGA 132251Z 04014KT 10SM BKN008 OVC013 04/02 A3045 RMK AO2 RAE11 SLP310
                 P0001 T00440022 $ =
2018-12-13 16:51 METAR KLGA 132151Z 04008KT 6SM -RA BR BKN008 BKN013 OVC023 03/01 A3046 RMK AO2
                 SLP313 P0002 T00280006 $ =
2018-12-13 16:03 METAR KLGA 132103Z 04010KT 8SM -RA BKN008 BKN018 OVC023 03/01 A3045 RMK AO2
                 P0000 T00280011 $ =
2018-12-13 15:51 METAR KLGA 132051Z 04009KT 6SM -RA BR BKN007 BKN018 OVC023 03/01 A3045 RMK AO2
                 SLP311 P0003 60003 T00280006 53017 =
2018-12-13 14:59 METAR KLGA 131959Z 03012KT 6SM -RA BKN007 BKN018 OVC030 03/01 A3044 RMK AO2
                 P0001 T00330006 =
2018-12-13 14:51 METAR KLGA 131951Z 04014KT 8SM -RA FEW009 SCT013 OVC020 03/01 A3043 RMK AO2
                 SLP304 P0000 T00280006 =
2018-12-13 13:51 METAR KLGA 131851Z 04011KT 5SM -RA BR FEW009 OVC022 03/01 A3041 RMK AO2 SNE13
                 SLP297 P0000 T00330011 =
2018-12-13 12:51 METAR KLGA 131751Z 05009KT 10SM -RASN BKN023 OVC040 03/01 A3040 RMK AO2 SLP295
                 P0000 60001 T00330006 10033 20011 58008 =

Support USWX by starting your Amazon purchase here.